Time;durP1;ratioP1;P1;durP2;ratioP2;P2;SDS_P1;SDS_P2;PMS_P1;PMS_P2;Temp;Humidity;BMP_temperature;BMP_pressure;BME280_temperature;BME280_humidity;BME280_pressure;Samples;Min_cycle;Max_cycle;Signal;HPM_P1;HPM_P2
2023/09/29 00:01:35;;;;;;;7.63;4.87;;;13.90;99.90;;;;;;4960080;28;20189;-70
2023/09/29 00:04:06;;;;;;;8.47;5.43;;;13.90;99.90;;;;;;4953349;28;20183;-68
2023/09/29 00:06:32;;;;;;;9.43;5.87;;;13.90;99.90;;;;;;4955915;28;20268;-69
2023/09/29 00:09:06;;;;;;;9.73;5.57;;;13.90;99.90;;;;;;4961307;28;20181;-70
2023/09/29 00:11:31;;;;;;;10.20;5.70;;;13.90;99.90;;;;;;4959324;28;20246;-71
2023/09/29 00:13:57;;;;;;;13.87;5.67;;;13.90;99.90;;;;;;4961589;28;20183;-68
2023/09/29 00:16:23;;;;;;;10.50;5.37;;;13.90;99.90;;;;;;4955638;28;20226;-70
2023/09/29 00:18:49;;;;;;;10.70;5.20;;;13.80;99.90;;;;;;4955274;28;20662;-70
2023/09/29 00:21:14;;;;;;;11.33;6.60;;;13.90;99.90;;;;;;4971556;28;20192;-70
2023/09/29 00:23:40;;;;;;;11.40;6.43;;;13.80;99.90;;;;;;4955841;28;20194;-70
2023/09/29 00:26:06;;;;;;;11.43;6.27;;;13.80;99.90;;;;;;4947754;28;20296;-71
2023/09/29 00:28:32;;;;;;;11.40;6.33;;;13.80;99.90;;;;;;4963142;28;20190;-71
2023/09/29 00:30:58;;;;;;;10.77;6.20;;;13.80;99.90;;;;;;4955653;28;20216;-70
2023/09/29 00:33:23;;;;;;;14.60;6.10;;;13.80;99.90;;;;;;4955409;28;20669;-69
2023/09/29 00:35:49;;;;;;;10.97;6.10;;;13.80;99.90;;;;;;4955327;28;20194;-68
2023/09/29 00:38:14;;;;;;;9.93;6.37;;;13.90;99.90;;;;;;4977939;28;20657;-68
2023/09/29 00:40:40;;;;;;;12.37;6.53;;;13.90;99.90;;;;;;4962474;28;20651;-68
2023/09/29 00:43:06;;;;;;;10.20;5.60;;;14.00;99.90;;;;;;4970419;28;20586;-69
2023/09/29 00:45:33;;;;;;;8.90;5.83;;;14.00;99.90;;;;;;4962022;28;20197;-68
2023/09/29 00:48:10;;;;;;;9.83;6.13;;;14.00;99.90;;;;;;4961063;28;20186;-69
2023/09/29 00:50:38;;;;;;;13.17;5.87;;;14.00;99.90;;;;;;4960398;28;20190;-69
2023/09/29 00:53:11;;;;;;;13.50;6.60;;;14.00;99.90;;;;;;4944076;28;20214;-69
2023/09/29 00:55:40;;;;;;;12.47;6.70;;;14.10;99.90;;;;;;4962799;28;20183;-71
2023/09/29 00:58:06;;;;;;;12.57;6.53;;;14.10;99.90;;;;;;4955061;28;20215;-68
2023/09/29 01:00:36;;;;;;;13.20;6.37;;;14.10;99.90;;;;;;4954600;28;20197;-69
2023/09/29 01:03:08;;;;;;;9.07;5.60;;;14.20;99.90;;;;;;4950548;28;20278;-69
2023/09/29 01:05:42;;;;;;;9.17;5.60;;;14.20;99.90;;;;;;4972331;28;20532;-69
2023/09/29 01:08:12;;;;;;;8.87;5.77;;;14.20;99.90;;;;;;4966107;28;20182;-69
2023/09/29 01:10:39;;;;;;;8.83;5.43;;;14.30;99.90;;;;;;4962993;28;20206;-69
2023/09/29 01:13:05;;;;;;;10.17;5.70;;;14.30;99.90;;;;;;4954805;28;20560;-69
2023/09/29 01:15:33;;;;;;;9.50;5.87;;;14.30;99.90;;;;;;4956721;28;20674;-69
2023/09/29 01:17:58;;;;;;;14.20;5.77;;;14.20;99.90;;;;;;4960266;28;20178;-69
2023/09/29 01:20:30;;;;;;;10.97;6.33;;;14.30;99.90;;;;;;4954273;28;20215;-68
2023/09/29 01:23:00;;;;;;;17.03;6.40;;;14.30;99.90;;;;;;4960205;28;20261;-68
2023/09/29 01:25:28;;;;;;;12.03;5.90;;;14.30;99.90;;;;;;4956425;28;20297;-69
2023/09/29 01:27:56;;;;;;;13.60;6.57;;;14.30;99.90;;;;;;4954499;28;20210;-69
2023/09/29 01:30:22;;;;;;;10.60;6.20;;;14.30;99.90;;;;;;4952729;28;20187;-69
2023/09/29 01:32:53;;;;;;;10.77;5.90;;;14.30;99.90;;;;;;4958920;28;20221;-69
2023/09/29 01:35:23;;;;;;;12.03;5.93;;;14.40;99.90;;;;;;4965250;28;20726;-69
2023/09/29 01:37:49;;;;;;;13.50;6.53;;;14.40;99.90;;;;;;4950026;28;20222;-70
2023/09/29 01:40:16;;;;;;;10.30;6.10;;;14.40;99.90;;;;;;4958566;28;20697;-70
2023/09/29 01:42:43;;;;;;;13.70;5.90;;;14.30;99.90;;;;;;4961284;28;20206;-69
2023/09/29 01:45:13;;;;;;;9.30;5.97;;;14.30;99.90;;;;;;4954419;28;20222;-69
2023/09/29 01:47:41;;;;;;;13.97;6.00;;;14.30;99.90;;;;;;4954319;28;20229;-69
2023/09/29 01:50:07;;;;;;;12.97;6.30;;;14.40;99.90;;;;;;4953730;28;20665;-70
2023/09/29 01:52:33;;;;;;;13.23;6.27;;;14.40;99.90;;;;;;4954206;28;20273;-70
2023/09/29 01:55:03;;;;;;;9.53;5.67;;;14.40;99.90;;;;;;4954135;28;20214;-69
2023/09/29 01:57:28;;;;;;;9.93;5.67;;;14.40;99.90;;;;;;4961928;28;20689;-70
2023/09/29 01:59:54;;;;;;;10.10;6.07;;;14.40;99.90;;;;;;4953731;28;20195;-70
2023/09/29 02:02:20;;;;;;;11.10;6.40;;;14.40;99.90;;;;;;4953885;28;20202;-69
2023/09/29 02:04:47;;;;;;;11.53;6.03;;;14.40;99.90;;;;;;4962112;28;20205;-70
2023/09/29 02:07:13;;;;;;;10.93;5.90;;;14.40;99.90;;;;;;4953984;28;20241;-70
2023/09/29 02:09:39;;;;;;;14.40;6.70;;;14.40;99.90;;;;;;4953225;28;20598;-70
2023/09/29 02:12:06;;;;;;;13.10;6.63;;;14.50;99.90;;;;;;4953903;28;20210;-70
2023/09/29 02:14:31;;;;;;;11.17;5.97;;;14.50;99.90;;;;;;4953807;28;20194;-70
2023/09/29 02:16:57;;;;;;;11.57;5.90;;;14.50;99.90;;;;;;4957291;28;20226;-69
2023/09/29 02:19:23;;;;;;;10.37;6.50;;;14.60;99.90;;;;;;4950764;28;20669;-70
2023/09/29 02:21:48;;;;;;;11.37;5.80;;;14.60;99.90;;;;;;4953693;28;20190;-70
2023/09/29 02:24:14;;;;;;;9.23;6.20;;;14.60;99.90;;;;;;4945880;28;20270;-70
2023/09/29 02:26:41;;;;;;;12.60;6.80;;;14.60;99.90;;;;;;4955777;28;20627;-69
2023/09/29 02:29:07;;;;;;;9.70;5.80;;;14.70;99.90;;;;;;4957479;28;20213;-69
2023/09/29 02:31:36;;;;;;;13.53;6.60;;;14.70;99.90;;;;;;4953290;28;20190;-69
2023/09/29 02:34:02;;;;;;;10.93;5.97;;;14.70;99.90;;;;;;4961613;28;20568;-70
2023/09/29 02:36:28;;;;;;;9.60;6.03;;;14.70;99.90;;;;;;4961041;28;20214;-70
2023/09/29 02:38:55;;;;;;;8.60;6.27;;;14.70;99.90;;;;;;4952768;28;20182;-70
2023/09/29 02:41:21;;;;;;;11.43;5.97;;;14.70;99.90;;;;;;4953003;28;20265;-70
2023/09/29 02:43:46;;;;;;;10.03;6.13;;;14.70;99.90;;;;;;4961307;28;20745;-69
2023/09/29 02:46:15;;;;;;;14.53;6.80;;;14.80;99.90;;;;;;4948786;28;20218;-69
2023/09/29 02:48:42;;;;;;;9.03;5.93;;;14.80;99.90;;;;;;4952623;28;20190;-68
2023/09/29 02:51:17;;;;;;;8.07;5.53;;;14.70;99.90;;;;;;4953069;28;20265;-69
2023/09/29 02:53:43;;;;;;;8.73;5.90;;;14.80;99.90;;;;;;4956657;28;20381;-69
2023/09/29 02:56:12;;;;;;;11.13;6.10;;;14.80;99.90;;;;;;4956557;28;20213;-69
2023/09/29 02:58:39;;;;;;;11.43;6.07;;;14.80;99.90;;;;;;4945063;28;20210;-69
2023/09/29 03:01:11;;;;;;;10.63;6.27;;;14.80;99.90;;;;;;4953114;28;20548;-69
2023/09/29 03:03:43;;;;;;;11.17;6.27;;;14.80;99.90;;;;;;4952895;28;20726;-69
2023/09/29 03:06:12;;;;;;;12.50;6.17;;;14.80;99.90;;;;;;4958390;28;20304;-69
2023/09/29 03:08:38;;;;;;;10.53;5.90;;;14.80;99.90;;;;;;4952697;28;20709;-68
2023/09/29 03:11:06;;;;;;;10.67;5.30;;;14.70;99.90;;;;;;4951517;28;20213;-68
2023/09/29 03:13:32;;;;;;;11.10;6.33;;;14.70;99.90;;;;;;4952545;28;20249;-68
2023/09/29 03:15:57;;;;;;;10.03;6.00;;;14.70;99.90;;;;;;4952703;28;20226;-68
2023/09/29 03:18:24;;;;;;;14.90;6.53;;;14.70;99.90;;;;;;4951887;28;20661;-68
2023/09/29 03:20:50;;;;;;;12.03;6.17;;;14.70;99.90;;;;;;4944837;28;20179;-67
2023/09/29 03:23:16;;;;;;;11.90;6.60;;;14.80;99.90;;;;;;4952829;28;20187;-68
2023/09/29 03:25:41;;;;;;;8.83;5.73;;;14.80;99.90;;;;;;4944667;28;20613;-68
2023/09/29 03:28:08;;;;;;;13.00;6.43;;;14.80;99.90;;;;;;4959152;28;20217;-68
2023/09/29 03:30:35;;;;;;;10.67;6.30;;;14.80;99.90;;;;;;4953425;28;20190;-69
2023/09/29 03:33:00;;;;;;;14.83;6.50;;;14.80;99.90;;;;;;4952413;28;20210;-68
2023/09/29 03:35:26;;;;;;;12.33;6.33;;;14.80;99.90;;;;;;4952195;28;20540;-69
2023/09/29 03:37:51;;;;;;;12.03;5.80;;;14.80;99.90;;;;;;4951782;28;20250;-68
2023/09/29 03:40:18;;;;;;;11.77;6.40;;;14.80;99.90;;;;;;4951301;28;20186;-69
2023/09/29 03:42:43;;;;;;;11.17;6.00;;;14.80;99.90;;;;;;4960342;28;20183;-68
2023/09/29 03:45:11;;;;;;;10.10;5.87;;;14.80;99.90;;;;;;4952356;28;20190;-70
2023/09/29 03:47:36;;;;;;;9.53;6.13;;;14.80;99.90;;;;;;4944166;29;20216;-68
2023/09/29 03:50:10;;;;;;;10.20;5.63;;;14.80;99.90;;;;;;4951835;28;20186;-69
2023/09/29 03:52:36;;;;;;;10.67;5.53;;;14.80;99.90;;;;;;4960046;28;20221;-67
2023/09/29 03:55:02;;;;;;;9.23;6.13;;;14.90;99.90;;;;;;4958302;28;20217;-69
2023/09/29 03:57:28;;;;;;;11.03;6.10;;;14.90;99.90;;;;;;4961827;28;20237;-68
2023/09/29 03:59:53;;;;;;;11.50;6.33;;;14.90;99.90;;;;;;4951732;28;20178;-68
2023/09/29 04:02:20;;;;;;;10.07;6.30;;;14.90;99.90;;;;;;4952346;28;20198;-69
2023/09/29 04:04:46;;;;;;;10.67;5.60;;;14.90;99.90;;;;;;4959720;28;20182;-69
2023/09/29 04:07:11;;;;;;;10.27;5.57;;;14.90;99.90;;;;;;4967251;28;20205;-68
2023/09/29 04:09:37;;;;;;;10.73;6.30;;;14.90;99.90;;;;;;4951871;28;20210;-69
2023/09/29 04:12:03;;;;;;;13.50;5.97;;;15.00;99.90;;;;;;4952063;28;20216;-69
2023/09/29 04:14:30;;;;;;;10.73;6.50;;;14.90;99.90;;;;;;4953418;28;20214;-69
2023/09/29 04:16:55;;;;;;;11.40;6.17;;;14.90;99.90;;;;;;4958204;28;20226;-68
2023/09/29 04:19:21;;;;;;;11.77;6.23;;;14.90;99.90;;;;;;4951564;28;20225;-69
2023/09/29 04:21:46;;;;;;;11.33;6.20;;;15.00;99.90;;;;;;4963785;28;20212;-68
2023/09/29 04:24:12;;;;;;;10.80;6.27;;;14.90;99.90;;;;;;4971395;28;20190;-69
2023/09/29 04:26:38;;;;;;;12.57;6.13;;;14.90;99.90;;;;;;4947139;28;20218;-69
2023/09/29 04:29:03;;;;;;;11.90;6.00;;;14.90;99.90;;;;;;4956517;28;20209;-69
2023/09/29 04:31:29;;;;;;;9.07;5.70;;;14.90;99.90;;;;;;4953147;28;20209;-68
2023/09/29 04:33:55;;;;;;;13.13;6.20;;;14.90;99.90;;;;;;4966230;28;20654;-68
2023/09/29 04:36:20;;;;;;;11.63;6.27;;;14.90;99.90;;;;;;4951853;28;20222;-68
2023/09/29 04:38:46;;;;;;;12.53;5.90;;;14.90;99.90;;;;;;4969954;28;20179;-69
2023/09/29 04:41:12;;;;;;;9.60;5.97;;;14.80;99.90;;;;;;4947779;28;20183;-69
2023/09/29 04:43:38;;;;;;;12.47;6.27;;;14.70;99.90;;;;;;4951608;28;20190;-69
2023/09/29 04:46:06;;;;;;;12.83;5.83;;;14.70;99.90;;;;;;4957834;28;20216;-69
2023/09/29 04:48:31;;;;;;;12.47;5.60;;;14.70;99.90;;;;;;4952512;28;20187;-70
2023/09/29 04:51:00;;;;;;;10.97;6.10;;;14.60;99.90;;;;;;4954257;28;20190;-69
2023/09/29 04:53:25;;;;;;;12.47;5.90;;;14.60;99.90;;;;;;4963179;28;20291;-69
2023/09/29 04:55:51;;;;;;;16.13;5.97;;;14.60;99.90;;;;;;4959842;28;20665;-70
2023/09/29 04:58:17;;;;;;;9.60;5.63;;;14.60;99.90;;;;;;4958166;28;20237;-70
2023/09/29 05:00:42;;;;;;;12.13;5.73;;;14.60;99.90;;;;;;4955301;28;20190;-69
2023/09/29 05:03:10;;;;;;;9.47;5.67;;;14.60;99.90;;;;;;4961843;28;20268;-69
2023/09/29 05:05:35;;;;;;;8.37;5.77;;;14.60;99.90;;;;;;4953456;28;20651;-70
2023/09/29 05:08:01;;;;;;;9.83;5.70;;;14.60;99.90;;;;;;4955170;28;20237;-70
2023/09/29 05:10:27;;;;;;;17.43;5.63;;;14.50;99.90;;;;;;4964479;28;20273;-70
2023/09/29 05:12:53;;;;;;;14.20;6.13;;;14.60;99.90;;;;;;4954941;28;20253;-70
2023/09/29 05:15:18;;;;;;;14.00;5.90;;;14.60;99.90;;;;;;4954824;28;20224;-71
2023/09/29 05:17:44;;;;;;;17.50;6.20;;;14.60;99.90;;;;;;4962709;28;20209;-70
2023/09/29 05:20:10;;;;;;;13.23;5.83;;;14.60;99.90;;;;;;4954246;28;20186;-71
2023/09/29 05:22:36;;;;;;;11.93;5.90;;;14.60;99.90;;;;;;4965060;28;20611;-71
2023/09/29 05:25:02;;;;;;;8.50;5.80;;;14.60;99.90;;;;;;4960462;28;20221;-70
2023/09/29 05:27:32;;;;;;;10.87;6.63;;;14.60;99.90;;;;;;4956184;28;20210;-71
2023/09/29 05:29:58;;;;;;;9.20;6.10;;;14.70;99.90;;;;;;4960310;28;20186;-71
2023/09/29 05:32:24;;;;;;;18.37;6.30;;;14.70;99.90;;;;;;4962380;28;20221;-71
2023/09/29 05:34:50;;;;;;;10.77;5.50;;;14.70;99.90;;;;;;4946631;28;20194;-71
2023/09/29 05:37:16;;;;;;;9.17;5.77;;;14.70;99.90;;;;;;4961875;28;20236;-71
2023/09/29 05:39:41;;;;;;;12.10;6.27;;;14.70;99.90;;;;;;4968533;28;20401;-71
2023/09/29 05:42:07;;;;;;;9.10;6.27;;;14.70;99.90;;;;;;4961262;28;20210;-71
2023/09/29 05:44:33;;;;;;;12.67;6.07;;;14.70;99.90;;;;;;4945607;28;20673;-69
2023/09/29 05:46:59;;;;;;;10.30;6.30;;;14.80;99.90;;;;;;4953495;28;20202;-69
2023/09/29 05:49:25;;;;;;;11.93;6.13;;;14.80;99.90;;;;;;4945485;28;20270;-70
2023/09/29 05:51:50;;;;;;;14.70;6.20;;;14.80;99.90;;;;;;4959987;28;20214;-69
2023/09/29 05:54:16;;;;;;;10.20;6.23;;;14.90;99.90;;;;;;4953527;28;20279;-69
2023/09/29 05:56:42;;;;;;;14.33;6.30;;;14.90;99.90;;;;;;4950137;28;20770;-67
2023/09/29 05:59:08;;;;;;;16.43;6.40;;;15.00;99.90;;;;;;4947881;28;20253;-70
2023/09/29 06:01:33;;;;;;;13.67;6.73;;;15.00;99.90;;;;;;4950414;28;20171;-68
2023/09/29 06:03:59;;;;;;;15.20;6.50;;;15.10;99.90;;;;;;4968190;28;20185;-69
2023/09/29 06:06:24;;;;;;;12.07;6.67;;;15.10;99.90;;;;;;4952863;28;20275;-68
2023/09/29 06:08:50;;;;;;;11.47;5.87;;;15.10;99.90;;;;;;4952601;28;20230;-70
2023/09/29 06:11:16;;;;;;;15.27;6.27;;;15.10;99.90;;;;;;4953097;28;20183;-69
2023/09/29 06:13:44;;;;;;;16.53;6.43;;;15.20;99.90;;;;;;4961018;28;20336;-70
2023/09/29 06:16:10;;;;;;;16.40;6.20;;;15.20;99.90;;;;;;4961011;28;20207;-69
2023/09/29 06:18:35;;;;;;;18.43;6.50;;;15.20;99.90;;;;;;4970432;28;20181;-69
2023/09/29 06:21:01;;;;;;;11.37;6.30;;;15.30;99.90;;;;;;4958473;28;20186;-70
2023/09/29 06:23:27;;;;;;;12.53;6.10;;;15.30;99.90;;;;;;4960579;28;20230;-69
2023/09/29 06:25:59;;;;;;;12.03;6.67;;;15.40;99.90;;;;;;4957231;28;20638;-70
2023/09/29 06:28:25;;;;;;;19.20;6.30;;;15.50;99.90;;;;;;4955300;28;20205;-70
2023/09/29 06:30:53;;;;;;;13.27;6.33;;;15.60;99.90;;;;;;4959712;28;20190;-70
2023/09/29 06:33:20;;;;;;;13.53;6.87;;;15.70;99.90;;;;;;4960579;28;20213;-71
2023/09/29 06:35:45;;;;;;;21.57;10.30;;;15.80;99.90;;;;;;4952431;28;20286;-70
2023/09/29 06:38:11;;;;;;;23.53;10.73;;;15.90;99.90;;;;;;4952024;28;20182;-71
2023/09/29 06:40:36;;;;;;;26.90;12.20;;;16.10;99.90;;;;;;4968358;28;20182;-71
2023/09/29 06:43:02;;;;;;;22.30;11.13;;;16.20;99.90;;;;;;4952411;28;20189;-71
2023/09/29 06:45:30;;;;;;;21.37;9.10;;;16.30;99.90;;;;;;4961498;28;20601;-70
2023/09/29 06:47:55;;;;;;;15.97;7.40;;;16.30;99.90;;;;;;4966606;28;20238;-70
2023/09/29 06:50:22;;;;;;;16.20;7.20;;;16.30;99.90;;;;;;4951581;28;20686;-70
2023/09/29 06:52:47;;;;;;;12.97;6.73;;;16.40;99.90;;;;;;4952397;28;20199;-71
2023/09/29 06:55:13;;;;;;;16.83;6.93;;;16.40;99.90;;;;;;4952336;28;20269;-70
2023/09/29 06:57:39;;;;;;;15.43;6.20;;;16.50;99.90;;;;;;4974618;28;20258;-71
2023/09/29 07:00:08;;;;;;;16.97;7.10;;;16.50;99.90;;;;;;4951745;28;20230;-70
2023/09/29 07:02:33;;;;;;;13.20;7.07;;;16.50;99.90;;;;;;4951896;28;20182;-71
2023/09/29 07:04:59;;;;;;;13.70;7.27;;;16.60;99.90;;;;;;4952119;28;20245;-71
2023/09/29 07:07:24;;;;;;;23.70;7.53;;;16.60;99.90;;;;;;4959595;28;20201;-68
2023/09/29 07:09:50;;;;;;;16.07;7.00;;;16.70;99.90;;;;;;4951443;28;20183;-71
2023/09/29 07:12:16;;;;;;;15.77;7.50;;;16.70;99.90;;;;;;4951711;28;20292;-69
2023/09/29 07:14:41;;;;;;;13.00;7.00;;;16.70;99.90;;;;;;4952078;28;20187;-71
2023/09/29 07:17:07;;;;;;;14.93;7.20;;;16.80;99.90;;;;;;4951940;28;20297;-71
2023/09/29 07:19:33;;;;;;;14.53;7.03;;;16.90;99.90;;;;;;4958968;28;20236;-71
2023/09/29 07:21:59;;;;;;;28.80;7.27;;;17.00;99.90;;;;;;4951702;28;20181;-71
2023/09/29 07:24:26;;;;;;;16.13;7.03;;;17.20;99.90;;;;;;4951560;28;20257;-70
2023/09/29 07:26:51;;;;;;;20.87;7.67;;;17.30;99.90;;;;;;4951745;28;20202;-70
2023/09/29 07:29:18;;;;;;;12.73;6.10;;;17.30;99.90;;;;;;4957422;28;20198;-70
2023/09/29 07:31:48;;;;;;;14.80;8.83;;;17.40;99.90;;;;;;4948360;28;20273;-69
2023/09/29 07:34:15;;;;;;;21.13;7.40;;;17.50;99.90;;;;;;4947386;28;20680;-70
2023/09/29 07:36:43;;;;;;;19.13;8.60;;;17.50;99.90;;;;;;4951132;28;20254;-70
2023/09/29 07:39:11;;;;;;;18.53;8.00;;;17.40;99.90;;;;;;4956260;28;20185;-70
2023/09/29 07:41:37;;;;;;;18.10;7.30;;;17.50;99.90;;;;;;4960699;28;20181;-70
2023/09/29 07:44:03;;;;;;;14.70;7.33;;;17.80;99.90;;;;;;4951628;28;20204;-71
2023/09/29 07:46:29;;;;;;;14.87;7.63;;;18.10;99.90;;;;;;4951529;28;20727;-69
2023/09/29 07:48:54;;;;;;;18.50;7.87;;;18.60;99.90;;;;;;4965749;28;20277;-70
2023/09/29 07:51:20;;;;;;;18.87;7.27;;;19.20;99.90;;;;;;4967364;28;20592;-70
2023/09/29 07:53:45;;;;;;;14.90;7.00;;;19.60;99.90;;;;;;4959348;28;20210;-70
2023/09/29 07:56:11;;;;;;;15.93;6.80;;;19.80;99.90;;;;;;4958181;28;20205;-70
2023/09/29 07:58:36;;;;;;;16.07;6.27;;;19.90;99.90;;;;;;4951913;28;20455;-69
2023/09/29 08:01:02;;;;;;;11.77;6.97;;;20.00;99.90;;;;;;4951506;28;20258;-68
2023/09/29 08:03:28;;;;;;;15.03;6.80;;;20.10;99.90;;;;;;4960304;28;20558;-69
2023/09/29 08:05:54;;;;;;;17.43;6.70;;;20.00;99.90;;;;;;4953497;28;20179;-69
2023/09/29 08:08:20;;;;;;;23.57;6.60;;;20.00;99.90;;;;;;4955363;28;20174;-71
2023/09/29 08:10:46;;;;;;;18.30;8.40;;;20.20;99.90;;;;;;4951257;28;20270;-68
2023/09/29 08:13:12;;;;;;;15.50;7.23;;;20.40;99.90;;;;;;4951159;28;20215;-69
2023/09/29 08:15:38;;;;;;;12.93;6.67;;;20.40;99.90;;;;;;4959012;28;20190;-70
2023/09/29 08:18:03;;;;;;;17.30;9.17;;;20.30;99.90;;;;;;4956841;28;20178;-71
2023/09/29 08:20:29;;;;;;;14.53;6.90;;;20.30;99.90;;;;;;4945858;28;20194;-71
2023/09/29 08:22:54;;;;;;;12.73;7.83;;;20.40;99.90;;;;;;4966000;28;20257;-70
2023/09/29 08:25:20;;;;;;;17.27;6.47;;;20.60;99.90;;;;;;4952866;28;20190;-71
2023/09/29 08:27:46;;;;;;;12.60;6.67;;;20.80;99.90;;;;;;4958616;28;20205;-70
2023/09/29 08:30:12;;;;;;;14.30;6.80;;;21.00;99.90;;;;;;4958888;28;20214;-70
2023/09/29 08:32:39;;;;;;;21.73;7.87;;;21.40;99.90;;;;;;4970608;28;20700;-70
2023/09/29 08:35:05;;;;;;;17.93;6.73;;;21.60;99.90;;;;;;4954928;28;20202;-71
2023/09/29 08:37:31;;;;;;;14.60;6.17;;;21.80;99.90;;;;;;4949646;28;20514;-73
2023/09/29 08:39:56;;;;;;;11.90;6.40;;;22.20;99.90;;;;;;4955274;28;20313;-70
2023/09/29 08:42:39;;;;;;;13.97;6.13;;;22.30;99.90;;;;;;4945418;28;20234;-72
2023/09/29 08:45:09;;;;;;;12.40;5.60;;;22.10;99.90;;;;;;4948113;28;20273;-70
2023/09/29 08:47:40;;;;;;;11.67;5.50;;;21.80;99.90;;;;;;4948457;28;20204;-70
2023/09/29 08:50:07;;;;;;;14.20;5.47;;;22.00;99.90;;;;;;4947696;28;20183;-70
2023/09/29 08:52:33;;;;;;;9.73;5.37;;;22.20;99.90;;;;;;4948662;28;20202;-70
2023/09/29 08:54:59;;;;;;;9.10;5.17;;;22.30;99.90;;;;;;4948265;28;20995;-71
2023/09/29 08:57:25;;;;;;;13.57;5.33;;;22.40;99.90;;;;;;4948693;28;20195;-70
2023/09/29 08:59:53;;;;;;;10.70;4.80;;;22.30;99.90;;;;;;4947080;28;20292;-70
2023/09/29 09:02:19;;;;;;;8.23;4.63;;;22.40;99.90;;;;;;4948628;28;20195;-70
2023/09/29 09:04:45;;;;;;;10.47;4.93;;;22.30;99.90;;;;;;4948408;28;20586;-70
2023/09/29 09:07:12;;;;;;;8.70;5.30;;;22.40;99.90;;;;;;4952243;28;20306;-70
2023/09/29 09:09:37;;;;;;;11.13;4.63;;;22.50;99.90;;;;;;4952041;28;20666;-70
2023/09/29 09:12:04;;;;;;;12.77;5.00;;;22.80;99.90;;;;;;4948797;28;20219;-71
2023/09/29 09:14:43;;;;;;;9.77;5.10;;;23.00;99.90;;;;;;4948922;28;20262;-70
2023/09/29 09:17:10;;;;;;;10.43;4.57;;;23.20;99.90;;;;;;4947972;28;20199;-72
2023/09/29 09:19:50;;;;;;;9.90;4.70;;;23.20;99.90;;;;;;4945387;28;20212;-68
2023/09/29 09:22:18;;;;;;;10.70;4.33;;;23.40;99.90;;;;;;4948011;28;20303;-70
2023/09/29 09:24:44;;;;;;;11.57;4.20;;;23.70;99.90;;;;;;4948109;28;20221;-70
2023/09/29 09:27:11;;;;;;;8.83;4.20;;;24.10;99.90;;;;;;4948355;28;20213;-69
2023/09/29 09:29:44;;;;;;;7.13;3.80;;;24.60;99.90;;;;;;4950352;28;20187;-69
2023/09/29 09:32:14;;;;;;;8.90;4.10;;;24.90;99.90;;;;;;4952881;28;20270;-68
2023/09/29 09:34:41;;;;;;;6.77;3.63;;;25.30;99.90;;;;;;4952255;28;20277;-69
2023/09/29 09:37:08;;;;;;;11.23;4.00;;;25.70;99.90;;;;;;4951232;28;20218;-69
2023/09/29 09:39:34;;;;;;;8.57;4.00;;;25.60;99.90;;;;;;4944381;28;20183;-70
2023/09/29 09:42:05;;;;;;;21.83;10.07;;;25.50;99.90;;;;;;4949915;28;20665;-70
2023/09/29 09:44:32;;;;;;;7.63;4.13;;;25.30;99.90;;;;;;4958567;28;20182;-68
2023/09/29 09:47:00;;;;;;;8.80;3.87;;;25.10;99.90;;;;;;4944622;28;20202;-68
2023/09/29 09:49:55;;;;;;;6.83;4.20;;;24.80;99.90;;;;;;4942442;28;20273;-68
2023/09/29 09:52:28;;;;;;;12.23;3.90;;;24.70;99.90;;;;;;4949358;28;20656;-68
2023/09/29 09:55:21;;;;;;;12.27;3.60;;;24.50;99.90;;;;;;4944848;28;20326;-68
2023/09/29 09:57:50;;;;;;;7.30;4.07;;;24.30;99.90;;;;;;4949988;28;20241;-68
2023/09/29 10:00:15;;;;;;;8.90;4.30;;;24.00;99.90;;;;;;4945313;28;20204;-68
2023/09/29 10:02:46;;;;;;;8.90;4.07;;;24.20;99.90;;;;;;4944537;28;20604;-67
2023/09/29 10:05:16;;;;;;;11.53;3.90;;;24.80;99.90;;;;;;4960504;28;20591;-68
2023/09/29 10:07:49;;;;;;;8.97;4.20;;;25.20;99.90;;;;;;4954664;28;20319;-68
2023/09/29 10:10:31;;;;;;;7.73;3.70;;;25.80;99.90;;;;;;4950002;28;20534;-68
2023/09/29 10:12:57;;;;;;;8.53;3.53;;;26.20;99.90;;;;;;4955795;28;20289;-68
2023/09/29 10:15:27;;;;;;;12.60;3.87;;;26.40;99.90;;;;;;4952415;28;20194;-68
2023/09/29 10:17:53;;;;;;;13.17;3.90;;;26.80;99.90;;;;;;4951692;28;20214;-68
2023/09/29 10:20:24;;;;;;;10.77;4.07;;;27.30;99.90;;;;;;4951844;28;20186;-68
2023/09/29 10:22:54;;;;;;;6.77;3.13;;;27.80;99.90;;;;;;4950049;28;20213;-68
2023/09/29 10:25:21;;;;;;;7.63;3.23;;;28.40;99.90;;;;;;4946389;28;20187;-69
2023/09/29 10:27:50;;;;;;;5.93;3.00;;;28.60;99.90;;;;;;4955725;28;20702;-69
2023/09/29 10:30:16;;;;;;;6.53;3.20;;;28.10;99.90;;;;;;4944823;28;20725;-69
2023/09/29 10:32:43;;;;;;;9.43;3.57;;;27.90;99.90;;;;;;4951115;28;20652;-68
2023/09/29 10:35:18;;;;;;;7.73;2.90;;;28.10;99.90;;;;;;4951922;28;20615;-68
2023/09/29 10:37:45;;;;;;;6.57;3.60;;;28.00;99.90;;;;;;4942596;28;20588;-68
2023/09/29 10:40:21;;;;;;;8.10;3.10;;;28.20;99.90;;;;;;4946176;28;20186;-67
2023/09/29 10:42:48;;;;;;;10.53;3.90;;;28.30;99.90;;;;;;4957469;28;20194;-68
2023/09/29 10:45:28;;;;;;;10.47;4.23;;;28.50;99.90;;;;;;4946321;28;20559;-66
2023/09/29 10:48:06;;;;;;;5.50;3.37;;;28.70;99.90;;;;;;4951622;28;20299;-68
2023/09/29 10:50:49;;;;;;;5.50;3.20;;;28.90;99.90;;;;;;4949332;28;20661;-70
2023/09/29 10:53:16;;;;;;;7.27;3.47;;;28.50;99.90;;;;;;4950567;28;20727;-68
2023/09/29 10:55:48;;;;;;;7.53;3.27;;;28.30;99.90;;;;;;4953975;28;20649;-66
2023/09/29 10:58:16;;;;;;;5.20;3.20;;;28.50;99.90;;;;;;4949217;28;20567;-66
2023/09/29 11:00:46;;;;;;;8.87;3.33;;;27.90;99.90;;;;;;4953914;28;20202;-66
2023/09/29 11:03:12;;;;;;;7.57;3.50;;;27.60;99.90;;;;;;4949149;28;20198;-67
2023/09/29 11:05:48;;;;;;;8.33;3.10;;;27.50;99.90;;;;;;4960833;28;20186;-67
2023/09/29 11:08:14;;;;;;;7.33;3.50;;;27.30;99.90;;;;;;4947119;28;20191;-68
2023/09/29 11:10:41;;;;;;;7.47;3.40;;;27.10;99.90;;;;;;4959101;28;20242;-65
2023/09/29 11:13:16;;;;;;;10.53;3.63;;;26.80;99.90;;;;;;4955127;28;20210;-66
2023/09/29 11:15:42;;;;;;;7.70;3.73;;;26.50;99.90;;;;;;4942539;28;20205;-67
2023/09/29 11:18:07;;;;;;;6.90;3.80;;;26.40;99.90;;;;;;4953559;28;20636;-67
2023/09/29 11:20:33;;;;;;;11.20;3.50;;;26.60;99.90;;;;;;4948437;28;20194;-66
2023/09/29 11:23:11;;;;;;;8.03;3.23;;;26.80;99.90;;;;;;4950894;29;20196;-65
2023/09/29 11:26:04;;;;;;;6.87;3.20;;;26.90;99.90;;;;;;4952117;28;20191;-67
2023/09/29 11:28:30;;;;;;;5.90;2.80;;;27.10;99.90;;;;;;4948271;28;20767;-64
2023/09/29 11:30:56;;;;;;;8.70;3.57;;;27.20;99.90;;;;;;4947565;28;20500;-66
2023/09/29 11:33:22;;;;;;;6.73;3.10;;;27.70;99.90;;;;;;4951311;28;20218;-66
2023/09/29 11:35:47;;;;;;;6.00;3.10;;;28.00;99.90;;;;;;4952834;28;20222;-66
2023/09/29 11:38:16;;;;;;;10.30;3.40;;;28.20;99.90;;;;;;4950772;28;20698;-67
2023/09/29 11:40:43;;;;;;;14.97;3.50;;;27.90;99.90;;;;;;4946857;28;20604;-71
2023/09/29 11:43:09;;;;;;;15.77;4.17;;;27.80;99.90;;;;;;4951401;28;20178;-66
2023/09/29 11:45:35;;;;;;;15.97;3.73;;;27.60;99.90;;;;;;4965185;28;20193;-66
2023/09/29 11:48:01;;;;;;;9.13;3.73;;;27.60;99.90;;;;;;4949573;28;20286;-70
2023/09/29 11:50:26;;;;;;;9.80;4.70;;;27.40;99.90;;;;;;4949126;28;20195;-68
2023/09/29 11:52:52;;;;;;;9.70;3.20;;;27.30;99.90;;;;;;4954152;28;20210;-66
2023/09/29 11:55:17;;;;;;;10.47;3.50;;;26.90;99.90;;;;;;4950287;28;20214;-66
2023/09/29 11:57:43;;;;;;;5.17;3.30;;;26.70;99.90;;;;;;4947979;28;20216;-65
2023/09/29 12:00:10;;;;;;;5.47;2.77;;;26.60;99.90;;;;;;4944227;28;20178;-67
2023/09/29 12:02:37;;;;;;;6.13;3.17;;;26.40;99.90;;;;;;4943312;28;20265;-66
2023/09/29 12:05:06;;;;;;;6.33;3.20;;;26.20;99.90;;;;;;4948020;28;20607;-67
2023/09/29 12:07:33;;;;;;;6.67;3.50;;;26.00;99.90;;;;;;4942643;28;20218;-67
2023/09/29 12:09:59;;;;;;;10.77;3.00;;;25.80;99.90;;;;;;4950179;28;20214;-67
2023/09/29 12:12:26;;;;;;;5.47;3.20;;;25.50;99.90;;;;;;4950202;28;20607;-68
2023/09/29 12:14:54;;;;;;;4.87;2.80;;;25.10;99.90;;;;;;4948908;28;20187;-67
2023/09/29 12:17:20;;;;;;;8.17;2.90;;;25.00;99.90;;;;;;4950813;28;20528;-66
2023/09/29 12:19:46;;;;;;;4.60;2.40;;;24.90;99.90;;;;;;4942288;28;20174;-66
2023/09/29 12:22:12;;;;;;;13.53;3.30;;;24.90;99.90;;;;;;4950419;28;20195;-66
2023/09/29 12:24:38;;;;;;;6.77;3.00;;;24.70;99.90;;;;;;4955206;28;20197;-66
2023/09/29 12:27:08;;;;;;;6.57;3.13;;;24.40;99.90;;;;;;4954987;28;20542;-66
2023/09/29 12:29:34;;;;;;;8.97;2.80;;;24.30;99.90;;;;;;4949276;28;20614;-66
2023/09/29 12:32:00;;;;;;;6.80;3.10;;;24.20;99.90;;;;;;4954412;28;20669;-66
2023/09/29 12:34:28;;;;;;;7.20;3.10;;;24.20;99.90;;;;;;4949981;28;20186;-66
2023/09/29 12:36:55;;;;;;;7.93;3.40;;;24.40;99.90;;;;;;4948881;28;20624;-66
2023/09/29 12:39:20;;;;;;;7.53;3.17;;;24.50;99.90;;;;;;4936501;28;20186;-66
2023/09/29 12:41:47;;;;;;;6.93;2.97;;;24.70;99.90;;;;;;4950303;28;20285;-67